Shinko Maru — JL6636 — position and weather

sailwx.info

Track history (hours):
 
Tides and Currents Weather Stations Pressure Air Temp Water Temp Dewpoint Dewpoint Depression Visibility Wind Speed Wind Dir Waves Ship Positions

Shinko Maru

Last reported at 2018-Jul-20 08:30 UTC. Time now 2018-Jul-20 08:30 UTC.
Position N 34°29' E 134°33'.

Length 66 m; draft 4.4 m.

Type: Tanker. MMSI: 431501479.

Date/timePositionNaut miles runAvg speedWind from/ knotsBaromVisibWave heightAir tempDewpointWater temp
2018-Jul-20 08:30N 34°29' E 134°33'611.7
2018-Jul-20 08:00N 34°32' E 134°40'611.8
2018-Jul-20 07:30N 34°34' E 134°47'612.7
2018-Jul-20 07:00N 34°36' E 134°54'712.1
2018-Jul-20 06:25N 34°37' E 135°02'511.0
2018-Jul-20 06:00N 34°36' E 135°08'611.2
2018-Jul-20 05:30N 34°35' E 135°14'510.8
2018-Jul-20 05:00N 34°34' E 135°21'4 6.1
2018-Jul-20 04:21N 34°33' E 135°26'0 0.0
2018-Jul-20 04:00N 34°33' E 135°26'0 0.0
2018-Jul-20 03:30N 34°33' E 135°26'0 0.0
2018-Jul-20 02:57N 34°33' E 135°26'0 0.0
2018-Jul-20 02:21N 34°33' E 135°26'0 0.0
2018-Jul-20 01:45N 34°33' E 135°26'0 0.0
2018-Jul-20 01:27N 34°33' E 135°26'0 0.0
2018-Jul-20 01:00N 34°33' E 135°26'0 0.0
2018-Jul-20 00:30N 34°33' E 135°26'0 0.0
2018-Jul-20 00:00N 34°33' E 135°26'0 0.0
2018-Jul-19 23:30N 34°33' E 135°26'0 0.0
2018-Jul-19 22:59N 34°33' E 135°26'0 0.0
2018-Jul-19 22:31N 34°33' E 135°26'1 1.9
2018-Jul-19 22:00N 34°33' E 135°25'3 5.2
2018-Jul-19 21:31N 34°34' E 135°22'5 9.1
2018-Jul-19 21:00N 34°34' E 135°16'611.4
2018-Jul-19 20:31N 34°35' E 135°09'612.2
2018-Jul-19 20:00N 34°36' E 135°02'811.0
2018-Jul-19 19:15N 34°34' E 134°52'310.8
2018-Jul-19 19:00N 34°33' E 134°49'611.1
2018-Jul-19 18:30N 34°31' E 134°43'611.7
2018-Jul-19 18:00N 34°29' E 134°37'611.7
2018-Jul-19 17:30N 34°27' E 134°30'611.8
2018-Jul-19 17:00N 34°25' E 134°23'2 0.1
2018-Jul-18 09:36N 34°26' E 134°21'110.7
2018-Jul-18 09:28N 34°26' E 134°23'510.9
2018-Jul-18 08:59N 34°28' E 134°29'510.8
2018-Jul-18 08:30N 34°30' E 134°35'611.0
2018-Jul-18 07:59N 34°32' E 134°41'510.9
2018-Jul-18 07:30N 34°34' E 134°47'510.6
2018-Jul-18 07:00N 34°36' E 134°53'7 9.9
2018-Jul-18 06:18N 34°37' E 135°02'310.6
2018-Jul-18 06:00N 34°36' E 135°05'611.2
2018-Jul-18 05:30N 34°35' E 135°12'611.2
2018-Jul-18 05:00N 34°34' E 135°19'611.1
2018-Jul-18 04:30N 34°33' E 135°25'1 0.2
2018-Jul-18 02:27N 34°33' E 135°26'0 0.0
2018-Jul-18 01:57N 34°33' E 135°26'0 0.0
2018-Jul-18 01:03N 34°33' E 135°26'0 0.0
2018-Jul-18 00:57N 34°33' E 135°26'0 0.0
2018-Jul-18 00:27N 34°33' E 135°26'0 0.0
2018-Jul-17 22:57N 34°33' E 135°26'0 0.0
2018-Jul-17 22:28N 34°33' E 135°26'1 2.9
2018-Jul-17 22:00N 34°33' E 135°24'1 2.2
2018-Jul-17 21:30N 34°34' E 135°23'0 0.0
2018-Jul-17 21:00N 34°34' E 135°23'0 0.0
2018-Jul-17 20:21N 34°34' E 135°23'0 0.0
2018-Jul-17 20:00N 34°34' E 135°23'0 0.0
2018-Jul-17 19:30N 34°34' E 135°23'0 0.1
2018-Jul-17 18:57N 34°34' E 135°23'0 0.1
2018-Jul-17 18:27N 34°34' E 135°23'0 0.0
2018-Jul-17 17:57N 34°34' E 135°23'0 0.0
2018-Jul-17 17:27N 34°34' E 135°23'0 0.0
2018-Jul-17 17:00N 34°34' E 135°23'0 0.0
2018-Jul-17 16:30N 34°34' E 135°23'0 0.0
2018-Jul-17 16:00N 34°34' E 135°23'0 0.0
2018-Jul-17 15:27N 34°34' E 135°23'0 0.0
2018-Jul-17 15:00N 34°34' E 135°23'0 0.0
2018-Jul-17 14:24N 34°34' E 135°23'0 0.0
2018-Jul-17 13:57N 34°34' E 135°23'0 0.0
2018-Jul-17 13:27N 34°34' E 135°23'0 0.0
2018-Jul-17 12:09N 34°34' E 135°23'0 0.0
2018-Jul-17 11:57N 34°34' E 135°23'1 3.0
2018-Jul-17 11:30N 34°34' E 135°21'612.1
2018-Jul-17 11:00N 34°34' E 135°14'713.2
2018-Jul-17 10:31N 34°35' E 135°06'712.7
2018-Jul-17 09:55N 34°36' E 134°57'613.8
2018-Jul-17 09:30N 34°34' E 134°51'713.2
2018-Jul-17 09:00N 34°31' E 134°44'612.6
2018-Jul-17 08:30N 34°29' E 134°36'612.8
2018-Jul-17 08:00N 34°26' E 134°29'712.4
2018-Jul-17 07:28N 34°24' E 134°22'2 0.1
2018-Jul-16 10:06N 34°25' E 134°20'111.4
2018-Jul-16 10:01N 34°26' E 134°21'611.6
2018-Jul-16 09:30N 34°28' E 134°28'611.3
2018-Jul-16 09:00N 34°29' E 134°34'510.9
2018-Jul-16 08:30N 34°31' E 134°41'510.7
2018-Jul-16 08:00N 34°33' E 134°47'5 9.5
2018-Jul-16 07:30N 34°35' E 134°52'4 8.4
2018-Jul-16 07:00N 34°37' E 134°57'4 6.8
2018-Jul-16 06:26N 34°37' E 135°01'3 6.9
2018-Jul-16 06:00N 34°36' E 135°04'5 9.8
2018-Jul-16 05:30N 34°35' E 135°10'611.5
2018-Jul-16 05:00N 34°34' E 135°17'611.3
2018-Jul-16 04:30N 34°33' E 135°24'1 2.1
2018-Jul-16 03:50N 34°33' E 135°26'0 0.0
2018-Jul-16 03:26N 34°33' E 135°26'0 0.0
2018-Jul-16 02:47N 34°33' E 135°26'0 0.0
2018-Jul-16 02:26N 34°33' E 135°26'0 0.0
2018-Jul-16 01:56N 34°33' E 135°26'0 0.0
2018-Jul-16 01:29N 34°33' E 135°26'0 0.0
2018-Jul-16 00:56N 34°33' E 135°26'0 0.0
2018-Jul-15 23:56N 34°33' E 135°26'0 0.0
2018-Jul-15 23:26N 34°33' E 135°26'0 0.0
2018-Jul-15 23:00N 34°33' E 135°26'1 1.8
2018-Jul-15 22:31N 34°33' E 135°25'3 6.3
2018-Jul-15 22:00N 34°35' E 135°21'0 0.3
2018-Jul-15 21:30N 34°34' E 135°21'3 6.2
2018-Jul-15 21:00N 34°34' E 135°17'612.2
2018-Jul-15 20:30N 34°34' E 135°10'713.9
2018-Jul-15 20:00N 34°36' E 135°02'713.5
2018-Jul-15 19:30N 34°35' E 134°54'713.6
2018-Jul-15 18:59N 34°32' E 134°46'612.5
2018-Jul-15 18:31N 34°30' E 134°39'612.6
2018-Jul-15 18:00N 34°27' E 134°32'612.1
2018-Jul-15 17:30N 34°25' E 134°26'  
2018-Jul-13 09:16N 34°21' E 134°23'311.4
2018-Jul-13 09:00N 34°20' E 134°27'1211.4
2018-Jul-13 07:57N 34°14' E 134°39'911.5
2018-Jul-13 07:09N 34°05' E 134°42'411.3
2018-Jul-13 06:50N 34°02' E 134°43'5 0.3
2018-Jul-12 13:58N 33°57' E 134°46'711.7
2018-Jul-12 13:24N 34°03' E 134°50'511.4
2018-Jul-12 13:00N 34°07' E 134°53'611.7
2018-Jul-12 12:30N 34°12' E 134°56'510.4
2018-Jul-12 12:01N 34°17' E 134°58'4 8.9
2018-Jul-12 11:30N 34°21' E 134°60'510.1
2018-Jul-12 11:01N 34°24' E 135°04'510.6
2018-Jul-12 10:30N 34°27' E 135°10'510.9
2018-Jul-12 10:00N 34°30' E 135°16'611.4
2018-Jul-12 09:30N 34°33' E 135°22'3 4.8
2018-Jul-12 08:51N 34°33' E 135°26'0 0.0
2018-Jul-12 08:27N 34°33' E 135°26'0 0.0
2018-Jul-12 07:57N 34°33' E 135°26'0 0.0
2018-Jul-12 07:27N 34°33' E 135°26'0 0.0
2018-Jul-12 06:57N 34°33' E 135°26'0 0.0
2018-Jul-12 06:30N 34°33' E 135°26'0 0.0
2018-Jul-12 05:51N 34°33' E 135°26'0 0.0
2018-Jul-12 05:21N 34°33' E 135°26'0 0.0
2018-Jul-12 04:57N 34°33' E 135°26'0 0.0
2018-Jul-12 04:27N 34°33' E 135°26'0 0.0
2018-Jul-12 03:57N 34°33' E 135°26'0 0.0
2018-Jul-12 03:30N 34°33' E 135°26'0 0.0
2018-Jul-12 03:00N 34°33' E 135°26'0 0.0
2018-Jul-12 02:30N 34°33' E 135°26'1 2.0
2018-Jul-12 02:00N 34°33' E 135°24'1 2.2
2018-Jul-12 01:26N 34°34' E 135°23'0 0.0
2018-Jul-12 00:47N 34°34' E 135°23'0 0.0
2018-Jul-12 00:29N 34°34' E 135°23'0 0.0
2018-Jul-11 23:53N 34°34' E 135°23'0 0.0
2018-Jul-11 23:29N 34°34' E 135°23'0 0.0
2018-Jul-11 22:59N 34°34' E 135°23'0 0.0
2018-Jul-11 22:23N 34°34' E 135°23'0 0.0
2018-Jul-11 21:59N 34°34' E 135°23'0 0.1
2018-Jul-11 21:29N 34°34' E 135°23'0 0.1
2018-Jul-11 20:53N 34°34' E 135°23'0 0.0
2018-Jul-11 20:29N 34°34' E 135°23'0 0.0
2018-Jul-11 19:47N 34°34' E 135°23'0 0.1
2018-Jul-11 19:17N 34°34' E 135°23'0 0.0
2018-Jul-11 18:47N 34°34' E 135°23'0 0.0
2018-Jul-11 18:11N 34°34' E 135°23'0 0.0
2018-Jul-11 17:59N 34°34' E 135°23'0 0.0
2018-Jul-11 15:53N 34°34' E 135°23'0 0.0
2018-Jul-11 15:17N 34°34' E 135°23'0 0.0
2018-Jul-11 14:44N 34°34' E 135°23'0 0.0
2018-Jul-11 14:29N 34°34' E 135°23'0 0.1
2018-Jul-11 13:59N 34°34' E 135°23'0 0.1
2018-Jul-11 13:29N 34°34' E 135°23'0 0.0
2018-Jul-11 12:59N 34°34' E 135°23'0 0.0
2018-Jul-11 12:17N 34°34' E 135°23'0 0.2
2018-Jul-11 11:59N 34°34' E 135°23'0 0.0
2018-Jul-11 11:29N 34°34' E 135°23'0 0.0
2018-Jul-11 10:59N 34°34' E 135°23'0 0.0
2018-Jul-11 10:17N 34°34' E 135°23'0 0.0
2018-Jul-11 09:56N 34°34' E 135°23'0 0.0
2018-Jul-11 09:23N 34°34' E 135°23'0 0.0
2018-Jul-11 08:59N 34°34' E 135°23'0 0.0
2018-Jul-11 08:29N 34°34' E 135°23'2 4.2
2018-Jul-11 08:00N 34°34' E 135°21'611.8
2018-Jul-11 07:30N 34°34' E 135°14'612.8
2018-Jul-11 07:00N 34°35' E 135°06'1210.8
2018-Jul-11 05:55N 34°34' E 134°51'512.5
2018-Jul-11 05:30N 34°32' E 134°46'612.6
2018-Jul-11 05:00N 34°30' E 134°39'612.1
2018-Jul-11 04:30N 34°27' E 134°32'611.5
2018-Jul-11 03:58N 34°25' E 134°25'  
Track history (hours):
 
Tides and Currents Weather Stations Pressure Air Temp Water Temp Dewpoint Dewpoint Depression Visibility Wind Speed Wind Dir Waves Ship Positions

Shinko Maru

Last reported at 2018-Jul-20 08:30 UTC. Time now 2018-Jul-20 08:30 UTC.
Position N 34°29' E 134°33'.

Length 66 m; draft 4.4 m.

Type: Tanker. MMSI: 431501479.

Date/timePositionNaut miles runAvg speedWind from/ knotsBaromVisibWave heightAir tempDewpointWater temp
2018-Jul-20 08:30N 34°29' E 134°33'611.7
2018-Jul-20 08:00N 34°32' E 134°40'611.8
2018-Jul-20 07:30N 34°34' E 134°47'612.7
2018-Jul-20 07:00N 34°36' E 134°54'712.1
2018-Jul-20 06:25N 34°37' E 135°02'511.0
2018-Jul-20 06:00N 34°36' E 135°08'611.2
2018-Jul-20 05:30N 34°35' E 135°14'510.8
2018-Jul-20 05:00N 34°34' E 135°21'4 6.1
2018-Jul-20 04:21N 34°33' E 135°26'0 0.0
2018-Jul-20 04:00N 34°33' E 135°26'0 0.0
2018-Jul-20 03:30N 34°33' E 135°26'0 0.0
2018-Jul-20 02:57N 34°33' E 135°26'0 0.0
2018-Jul-20 02:21N 34°33' E 135°26'0 0.0
2018-Jul-20 01:45N 34°33' E 135°26'0 0.0
2018-Jul-20 01:27N 34°33' E 135°26'0 0.0
2018-Jul-20 01:00N 34°33' E 135°26'0 0.0
2018-Jul-20 00:30N 34°33' E 135°26'0 0.0
2018-Jul-20 00:00N 34°33' E 135°26'0 0.0
2018-Jul-19 23:30N 34°33' E 135°26'0 0.0
2018-Jul-19 22:59N 34°33' E 135°26'0 0.0
2018-Jul-19 22:31N 34°33' E 135°26'1 1.9
2018-Jul-19 22:00N 34°33' E 135°25'3 5.2
2018-Jul-19 21:31N 34°34' E 135°22'5 9.1
2018-Jul-19 21:00N 34°34' E 135°16'611.4
2018-Jul-19 20:31N 34°35' E 135°09'612.2
2018-Jul-19 20:00N 34°36' E 135°02'811.0
2018-Jul-19 19:15N 34°34' E 134°52'310.8
2018-Jul-19 19:00N 34°33' E 134°49'611.1
2018-Jul-19 18:30N 34°31' E 134°43'611.7
2018-Jul-19 18:00N 34°29' E 134°37'611.7
2018-Jul-19 17:30N 34°27' E 134°30'611.8
2018-Jul-19 17:00N 34°25' E 134°23'2 0.1
2018-Jul-18 09:36N 34°26' E 134°21'110.7
2018-Jul-18 09:28N 34°26' E 134°23'510.9
2018-Jul-18 08:59N 34°28' E 134°29'510.8
2018-Jul-18 08:30N 34°30' E 134°35'611.0
2018-Jul-18 07:59N 34°32' E 134°41'510.9
2018-Jul-18 07:30N 34°34' E 134°47'510.6
2018-Jul-18 07:00N 34°36' E 134°53'7 9.9
2018-Jul-18 06:18N 34°37' E 135°02'310.6
2018-Jul-18 06:00N 34°36' E 135°05'611.2
2018-Jul-18 05:30N 34°35' E 135°12'611.2
2018-Jul-18 05:00N 34°34' E 135°19'611.1
2018-Jul-18 04:30N 34°33' E 135°25'1 0.2
2018-Jul-18 02:27N 34°33' E 135°26'0 0.0
2018-Jul-18 01:57N 34°33' E 135°26'0 0.0
2018-Jul-18 01:03N 34°33' E 135°26'0 0.0
2018-Jul-18 00:57N 34°33' E 135°26'0 0.0
2018-Jul-18 00:27N 34°33' E 135°26'0 0.0
2018-Jul-17 22:57N 34°33' E 135°26'0 0.0
2018-Jul-17 22:28N 34°33' E 135°26'1 2.9
2018-Jul-17 22:00N 34°33' E 135°24'1 2.2
2018-Jul-17 21:30N 34°34' E 135°23'0 0.0
2018-Jul-17 21:00N 34°34' E 135°23'0 0.0
2018-Jul-17 20:21N 34°34' E 135°23'0 0.0
2018-Jul-17 20:00N 34°34' E 135°23'0 0.0
2018-Jul-17 19:30N 34°34' E 135°23'0 0.1
2018-Jul-17 18:57N 34°34' E 135°23'0 0.1
2018-Jul-17 18:27N 34°34' E 135°23'0 0.0
2018-Jul-17 17:57N 34°34' E 135°23'0 0.0
2018-Jul-17 17:27N 34°34' E 135°23'0 0.0
2018-Jul-17 17:00N 34°34' E 135°23'0 0.0
2018-Jul-17 16:30N 34°34' E 135°23'0 0.0
2018-Jul-17 16:00N 34°34' E 135°23'0 0.0
2018-Jul-17 15:27N 34°34' E 135°23'0 0.0
2018-Jul-17 15:00N 34°34' E 135°23'0 0.0
2018-Jul-17 14:24N 34°34' E 135°23'0 0.0
2018-Jul-17 13:57N 34°34' E 135°23'0 0.0
2018-Jul-17 13:27N 34°34' E 135°23'0 0.0
2018-Jul-17 12:09N 34°34' E 135°23'0 0.0
2018-Jul-17 11:57N 34°34' E 135°23'1 3.0
2018-Jul-17 11:30N 34°34' E 135°21'612.1
2018-Jul-17 11:00N 34°34' E 135°14'713.2
2018-Jul-17 10:31N 34°35' E 135°06'712.7
2018-Jul-17 09:55N 34°36' E 134°57'613.8
2018-Jul-17 09:30N 34°34' E 134°51'713.2
2018-Jul-17 09:00N 34°31' E 134°44'612.6
2018-Jul-17 08:30N 34°29' E 134°36'612.8
2018-Jul-17 08:00N 34°26' E 134°29'712.4
2018-Jul-17 07:28N 34°24' E 134°22'2 0.1
2018-Jul-16 10:06N 34°25' E 134°20'111.4
2018-Jul-16 10:01N 34°26' E 134°21'611.6
2018-Jul-16 09:30N 34°28' E 134°28'611.3
2018-Jul-16 09:00N 34°29' E 134°34'510.9
2018-Jul-16 08:30N 34°31' E 134°41'510.7
2018-Jul-16 08:00N 34°33' E 134°47'5 9.5
2018-Jul-16 07:30N 34°35' E 134°52'4 8.4
2018-Jul-16 07:00N 34°37' E 134°57'4 6.8
2018-Jul-16 06:26N 34°37' E 135°01'3 6.9
2018-Jul-16 06:00N 34°36' E 135°04'5 9.8
2018-Jul-16 05:30N 34°35' E 135°10'611.5
2018-Jul-16 05:00N 34°34' E 135°17'611.3
2018-Jul-16 04:30N 34°33' E 135°24'1 2.1
2018-Jul-16 03:50N 34°33' E 135°26'0 0.0
2018-Jul-16 03:26N 34°33' E 135°26'0 0.0
2018-Jul-16 02:47N 34°33' E 135°26'0 0.0
2018-Jul-16 02:26N 34°33' E 135°26'0 0.0
2018-Jul-16 01:56N 34°33' E 135°26'0 0.0
2018-Jul-16 01:29N 34°33' E 135°26'0 0.0
2018-Jul-16 00:56N 34°33' E 135°26'0 0.0
2018-Jul-15 23:56N 34°33' E 135°26'0 0.0
2018-Jul-15 23:26N 34°33' E 135°26'0 0.0
2018-Jul-15 23:00N 34°33' E 135°26'1 1.8
2018-Jul-15 22:31N 34°33' E 135°25'3 6.3
2018-Jul-15 22:00N 34°35' E 135°21'0 0.3
2018-Jul-15 21:30N 34°34' E 135°21'3 6.2
2018-Jul-15 21:00N 34°34' E 135°17'612.2
2018-Jul-15 20:30N 34°34' E 135°10'713.9
2018-Jul-15 20:00N 34°36' E 135°02'713.5
2018-Jul-15 19:30N 34°35' E 134°54'713.6
2018-Jul-15 18:59N 34°32' E 134°46'612.5
2018-Jul-15 18:31N 34°30' E 134°39'612.6
2018-Jul-15 18:00N 34°27' E 134°32'612.1
2018-Jul-15 17:30N 34°25' E 134°26'  
2018-Jul-13 09:16N 34°21' E 134°23'311.4
2018-Jul-13 09:00N 34°20' E 134°27'1211.4
2018-Jul-13 07:57N 34°14' E 134°39'911.5
2018-Jul-13 07:09N 34°05' E 134°42'411.3
2018-Jul-13 06:50N 34°02' E 134°43'5 0.3
2018-Jul-12 13:58N 33°57' E 134°46'711.7
2018-Jul-12 13:24N 34°03' E 134°50'511.4
2018-Jul-12 13:00N 34°07' E 134°53'611.7
2018-Jul-12 12:30N 34°12' E 134°56'510.4
2018-Jul-12 12:01N 34°17' E 134°58'4 8.9
2018-Jul-12 11:30N 34°21' E 134°60'510.1
2018-Jul-12 11:01N 34°24' E 135°04'510.6
2018-Jul-12 10:30N 34°27' E 135°10'510.9
2018-Jul-12 10:00N 34°30' E 135°16'611.4
2018-Jul-12 09:30N 34°33' E 135°22'3 4.8
2018-Jul-12 08:51N 34°33' E 135°26'0 0.0
2018-Jul-12 08:27N 34°33' E 135°26'0 0.0
2018-Jul-12 07:57N 34°33' E 135°26'0 0.0
2018-Jul-12 07:27N 34°33' E 135°26'0 0.0
2018-Jul-12 06:57N 34°33' E 135°26'0 0.0
2018-Jul-12 06:30N 34°33' E 135°26'0 0.0
2018-Jul-12 05:51N 34°33' E 135°26'0 0.0
2018-Jul-12 05:21N 34°33' E 135°26'0 0.0
2018-Jul-12 04:57N 34°33' E 135°26'0 0.0
2018-Jul-12 04:27N 34°33' E 135°26'0 0.0
2018-Jul-12 03:57N 34°33' E 135°26'0 0.0
2018-Jul-12 03:30N 34°33' E 135°26'0 0.0
2018-Jul-12 03:00N 34°33' E 135°26'0 0.0
2018-Jul-12 02:30N 34°33' E 135°26'1 2.0
2018-Jul-12 02:00N 34°33' E 135°24'1 2.2
2018-Jul-12 01:26N 34°34' E 135°23'0 0.0
2018-Jul-12 00:47N 34°34' E 135°23'0 0.0
2018-Jul-12 00:29N 34°34' E 135°23'0 0.0
2018-Jul-11 23:53N 34°34' E 135°23'0 0.0
2018-Jul-11 23:29N 34°34' E 135°23'0 0.0
2018-Jul-11 22:59N 34°34' E 135°23'0 0.0
2018-Jul-11 22:23N 34°34' E 135°23'0 0.0
2018-Jul-11 21:59N 34°34' E 135°23'0 0.1
2018-Jul-11 21:29N 34°34' E 135°23'0 0.1
2018-Jul-11 20:53N 34°34' E 135°23'0 0.0
2018-Jul-11 20:29N 34°34' E 135°23'0 0.0
2018-Jul-11 19:47N 34°34' E 135°23'0 0.1
2018-Jul-11 19:17N 34°34' E 135°23'0 0.0
2018-Jul-11 18:47N 34°34' E 135°23'0 0.0
2018-Jul-11 18:11N 34°34' E 135°23'0 0.0
2018-Jul-11 17:59N 34°34' E 135°23'0 0.0
2018-Jul-11 15:53N 34°34' E 135°23'0 0.0
2018-Jul-11 15:17N 34°34' E 135°23'0 0.0
2018-Jul-11 14:44N 34°34' E 135°23'0 0.0
2018-Jul-11 14:29N 34°34' E 135°23'0 0.1
2018-Jul-11 13:59N 34°34' E 135°23'0 0.1
2018-Jul-11 13:29N 34°34' E 135°23'0 0.0
2018-Jul-11 12:59N 34°34' E 135°23'0 0.0
2018-Jul-11 12:17N 34°34' E 135°23'0 0.2
2018-Jul-11 11:59N 34°34' E 135°23'0 0.0
2018-Jul-11 11:29N 34°34' E 135°23'0 0.0
2018-Jul-11 10:59N 34°34' E 135°23'0 0.0
2018-Jul-11 10:17N 34°34' E 135°23'0 0.0
2018-Jul-11 09:56N 34°34' E 135°23'0 0.0
2018-Jul-11 09:23N 34°34' E 135°23'0 0.0
2018-Jul-11 08:59N 34°34' E 135°23'0 0.0
2018-Jul-11 08:29N 34°34' E 135°23'2 4.2
2018-Jul-11 08:00N 34°34' E 135°21'611.8
2018-Jul-11 07:30N 34°34' E 135°14'612.8
2018-Jul-11 07:00N 34°35' E 135°06'1210.8
2018-Jul-11 05:55N 34°34' E 134°51'512.5
2018-Jul-11 05:30N 34°32' E 134°46'612.6
2018-Jul-11 05:00N 34°30' E 134°39'612.1
2018-Jul-11 04:30N 34°27' E 134°32'611.5
2018-Jul-11 03:58N 34°25' E 134°25'  

Dump ship's entire track history